Time;durP1;ratioP1;P1;durP2;ratioP2;P2;SDS_P1;SDS_P2;PMS_P1;PMS_P2;Temp;Humidity;BMP_temperature;BMP_pressure;BME280_temperature;BME280_humidity;BME280_pressure;Samples;Min_cycle;Max_cycle;Signal;HPM_P1;HPM_P2
2021/03/08 00:05:54;;;;;;;1999.90;999.90;;;;;;;5.35;74.42;101418.63;15796556;28;20097;-54
2021/03/08 00:13:26;;;;;;;1999.90;999.90;;;;;;;5.38;74.46;101436.63;15883522;22;20498;-61
2021/03/08 00:20:58;;;;;;;1999.90;999.90;;;;;;;5.01;75.91;101432.28;15901657;27;20054;-63
2021/03/08 00:28:30;;;;;;;1999.90;999.90;;;;;;;5.20;74.74;101435.25;15866136;28;20122;-62
2021/03/08 00:36:03;;;;;;;1999.90;999.90;;;;;;;5.19;74.43;101444.69;15901746;27;20039;-61
2021/03/08 00:43:34;;;;;;;1999.90;999.90;;;;;;;5.29;73.80;101444.66;15901553;27;20043;-62
2021/03/08 00:51:07;;;;;;;1999.90;999.90;;;;;;;5.06;74.82;101448.03;15854709;28;20147;-60
2021/03/08 00:58:38;;;;;;;1999.90;999.90;;;;;;;5.39;73.73;101439.09;15890027;28;20043;-60
2021/03/08 01:06:10;;;;;;;1999.90;999.90;;;;;;;5.28;73.72;101436.63;15897238;28;20039;-60
2021/03/08 01:13:45;;;;;;;1999.90;999.90;;;;;;;5.43;73.64;101431.09;15887875;28;20553;-62
2021/03/08 01:21:17;;;;;;;1999.90;999.90;;;;;;;5.50;73.08;101437.94;15873296;28;20039;-62
2021/03/08 01:28:49;;;;;;;1999.90;999.90;;;;;;;5.28;72.62;101431.94;15888430;28;20422;-60
2021/03/08 01:36:21;;;;;;;1999.90;999.90;;;;;;;5.26;73.65;101428.63;15847165;28;20061;-62
2021/03/08 01:43:53;;;;;;;1999.90;999.90;;;;;;;5.40;73.16;101428.84;15916195;28;20040;-62
2021/03/08 01:51:25;;;;;;;1999.90;999.90;;;;;;;5.33;73.66;101443.00;15906554;27;20055;-61
2021/03/08 01:58:57;;;;;;;1999.90;999.90;;;;;;;5.14;74.54;101430.88;15868076;27;20514;-62
2021/03/08 02:06:29;;;;;;;1999.90;999.90;;;;;;;5.11;74.11;101448.84;15906739;27;20043;-63
2021/03/08 02:14:27;;;;;;;1999.90;999.90;;;;;;;5.14;74.38;101441.94;15871140;27;20040;-63
2021/03/08 02:22:31;;;;;;;1999.90;999.90;;;;;;;5.00;74.85;101444.41;15886957;27;20047;-63
2021/03/08 02:30:10;;;;;;;1999.90;999.90;;;;;;;4.96;73.98;101437.78;15911596;27;20527;-62
2021/03/08 02:37:50;;;;;;;1999.90;999.90;;;;;;;4.74;74.79;101446.38;15872595;27;20126;-61
2021/03/08 02:45:25;;;;;;;1999.90;999.90;;;;;;;4.39;74.73;101462.94;15894544;27;20088;-61
2021/03/08 02:52:59;;;;;;;1999.90;999.90;;;;;;;4.14;74.98;101461.75;15887259;27;20150;-63
2021/03/08 03:00:31;;;;;;;1999.90;999.90;;;;;;;3.67;76.33;101462.69;15879226;27;20241;-61
2021/03/08 03:08:05;;;;;;;1999.90;999.90;;;;;;;3.71;74.89;101476.78;15895605;27;20047;-61
2021/03/08 03:15:39;;;;;;;1999.90;999.90;;;;;;;3.31;74.70;101475.44;15896146;27;20086;-60
2021/03/08 03:23:11;;;;;;;1999.90;999.90;;;;;;;3.33;73.96;101475.19;15866003;27;20217;-60
2021/03/08 03:30:45;;;;;;;1999.90;999.90;;;;;;;3.16;73.93;101480.88;15881038;27;20104;-62
2021/03/08 03:38:20;;;;;;;1999.90;999.90;;;;;;;3.02;74.28;101493.44;15890065;27;20043;-58
2021/03/08 03:45:53;;;;;;;1999.90;999.90;;;;;;;2.59;75.70;101496.09;15889355;27;20089;-61
2021/03/08 03:53:26;;;;;;;1999.90;999.90;;;;;;;2.68;74.86;101506.66;15904001;27;20040;-62
2021/03/08 04:01:03;;;;;;;1999.90;999.90;;;;;;;2.47;75.68;101511.13;15894043;27;20071;-60
2021/03/08 04:08:37;;;;;;;1999.90;999.90;;;;;;;2.48;74.98;101538.44;15861682;27;20127;-61
2021/03/08 04:16:09;;;;;;;1999.90;999.90;;;;;;;2.26;75.17;101541.22;15871051;27;20328;-61
2021/03/08 04:23:42;;;;;;;1999.90;999.90;;;;;;;1.99;76.73;101546.69;15889298;27;20050;-60
2021/03/08 04:31:14;;;;;;;1999.90;999.90;;;;;;;1.98;75.96;101553.28;15902179;27;20059;-61
2021/03/08 04:38:47;;;;;;;1999.90;999.90;;;;;;;2.21;74.76;101565.97;15864215;27;20130;-61
2021/03/08 04:46:20;;;;;;;1999.90;999.90;;;;;;;2.01;74.87;101563.78;15883366;28;20031;-62
2021/03/08 04:53:52;;;;;;;1999.90;999.90;;;;;;;1.85;75.45;101572.06;15902206;28;20071;-61
2021/03/08 05:01:26;;;;;;;1999.90;999.90;;;;;;;1.93;74.86;101568.88;15845331;28;20279;-64
2021/03/08 05:09:01;;;;;;;1999.90;999.90;;;;;;;1.56;75.93;101582.38;15903303;28;20131;-62
2021/03/08 05:16:33;;;;;;;1999.90;999.90;;;;;;;1.53;75.77;101593.88;15882969;28;20031;-64
2021/03/08 05:24:06;;;;;;;1999.90;999.90;;;;;;;1.38;76.22;101595.31;15898495;28;20130;-62
2021/03/08 05:31:58;;;;;;;1999.90;999.90;;;;;;;1.38;75.53;101605.50;15883111;27;20051;-61
2021/03/08 05:39:31;;;;;;;1999.90;999.90;;;;;;;1.32;75.37;101610.06;15886595;27;20039;-60
2021/03/08 05:47:39;;;;;;;1999.90;999.90;;;;;;;1.38;75.25;101635.75;15873480;27;20036;-63
2021/03/08 05:55:31;;;;;;;1999.90;999.90;;;;;;;1.27;75.10;101634.75;15896885;27;20122;-63
2021/03/08 06:03:14;;;;;;;1999.90;999.90;;;;;;;1.43;74.90;101635.81;15849960;27;20055;-65
2021/03/08 06:11:03;;;;;;;1999.90;999.90;;;;;;;1.44;74.55;101648.50;15902684;27;20301;-61
2021/03/08 06:18:44;;;;;;;1999.90;999.90;;;;;;;1.22;74.98;101659.38;15929053;27;20039;-63
2021/03/08 06:26:16;;;;;;;1999.90;999.90;;;;;;;1.30;75.46;101680.16;15907063;27;20134;-62
2021/03/08 06:33:48;;;;;;;1999.90;999.90;;;;;;;1.35;75.54;101682.97;15907244;27;20050;-61
2021/03/08 06:41:20;;;;;;;1999.90;999.90;;;;;;;1.55;74.66;101702.59;15868034;27;20142;-60
2021/03/08 06:48:52;;;;;;;1999.90;999.90;;;;;;;2.10;72.49;101717.53;15877590;27;20036;-62
2021/03/08 06:56:26;;;;;;;1999.90;999.90;;;;;;;2.34;71.97;101729.16;15865332;27;20049;-63
2021/03/08 07:03:59;;;;;;;1999.90;999.90;;;;;;;3.42;69.58;101732.97;15855590;28;20069;-62
2021/03/08 07:11:32;;;;;;;1999.90;999.90;;;;;;;5.43;62.86;101736.41;15868871;28;20044;-63
2021/03/08 07:19:04;;;;;;;1999.90;999.90;;;;;;;6.61;58.30;101764.94;15875831;27;20440;-62
2021/03/08 07:26:36;;;;;;;1999.90;999.90;;;;;;;6.71;58.08;101775.19;15930558;27;20164;-60
2021/03/08 07:34:09;;;;;;;1999.90;999.90;;;;;;;7.77;56.16;101780.22;15911278;27;20062;-60
2021/03/08 07:41:51;;;;;;;1999.90;999.90;;;;;;;8.77;53.68;101792.72;15929684;27;20130;-59
2021/03/08 07:49:35;;;;;;;1999.90;999.90;;;;;;;9.65;50.17;101790.50;15928452;27;20308;-60
2021/03/08 07:57:08;;;;;;;1999.90;999.90;;;;;;;8.91;51.22;101806.75;15909736;27;20047;-57
2021/03/08 08:04:40;;;;;;;1999.90;999.90;;;;;;;9.18;49.59;101808.97;15894367;27;20352;-63
2021/03/08 08:12:17;;;;;;;1999.90;999.90;;;;;;;10.23;47.29;101821.69;15929576;27;20077;-63
2021/03/08 08:47:41;;;;;;;1999.90;999.90;;;;;;;11.51;43.95;101834.91;15926884;28;20065;-60
2021/03/08 10:54:55;;;;;;;;;;;;;;;;;;;;;
2021/03/08 11:21:36;;;;;;;1999.90;999.90;;;;;;;16.43;23.70;101889.22;15855846;28;20050;-63
2021/03/08 13:09:54;;;;;;;1999.90;999.90;;;;;;;25.86;14.47;101849.13;15796485;28;20065;-73
2021/03/08 13:17:26;;;;;;;1999.90;999.90;;;;;;;22.62;14.72;101835.22;15793166;28;20044;-74
2021/03/08 13:25:00;;;;;;;1999.90;999.90;;;;;;;24.11;13.77;101827.13;15753303;28;20356;-73
2021/03/08 13:32:33;;;;;;;1999.90;999.90;;;;;;;24.18;14.12;101822.28;15700342;28;20080;-72
2021/03/08 13:40:09;;;;;;;1999.90;999.90;;;;;;;22.21;13.61;101828.59;15710080;28;20079;-73
2021/03/08 13:47:44;;;;;;;1999.90;999.90;;;;;;;14.47;20.36;101809.97;15680868;28;20036;-72
2021/03/08 13:55:17;;;;;;;1999.90;999.90;;;;;;;10.98;23.31;101804.69;15663680;28;20492;-73
2021/03/08 14:02:48;;;;;;;1999.90;999.90;;;;;;;10.87;24.46;101794.03;15662015;28;20049;-73
2021/03/08 14:10:21;;;;;;;1999.90;999.90;;;;;;;10.11;25.25;101794.25;15684037;28;20561;-72
2021/03/08 14:17:53;;;;;;;1999.90;999.90;;;;;;;11.07;24.42;101790.03;15755120;28;20068;-73
2021/03/08 14:25:26;;;;;;;1999.90;999.90;;;;;;;10.34;25.79;101778.53;15750967;28;20048;-73
2021/03/08 14:32:58;;;;;;;1999.90;999.90;;;;;;;10.60;24.08;101789.25;15768783;28;20043;-73
2021/03/08 14:40:31;;;;;;;1999.90;999.90;;;;;;;10.83;25.14;101781.81;15806363;28;20181;-73
2021/03/08 14:48:07;;;;;;;1999.90;999.90;;;;;;;9.96;25.00;101776.91;15817642;28;20413;-73
2021/03/08 14:55:40;;;;;;;1999.90;999.90;;;;;;;10.20;25.69;101780.41;15812360;28;20186;-74
2021/03/08 15:03:13;;;;;;;1999.90;999.90;;;;;;;10.29;25.56;101775.81;15800065;28;20353;-74
2021/03/08 15:10:53;;;;;;;1999.90;999.90;;;;;;;10.23;27.00;101777.06;15801743;28;20056;-74
2021/03/08 15:18:26;;;;;;;1999.90;999.90;;;;;;;10.12;25.99;101762.44;15802124;28;20483;-73
2021/03/08 15:26:02;;;;;;;1999.90;999.90;;;;;;;9.39;29.17;101767.75;15766808;28;20133;-73
2021/03/08 15:33:34;;;;;;;1999.90;999.90;;;;;;;9.41;28.89;101769.09;15782801;28;20452;-73
2021/03/08 15:41:10;;;;;;;1999.90;999.90;;;;;;;9.26;27.80;101770.13;15802070;22;20052;-72
2021/03/08 15:48:42;;;;;;;1999.90;999.90;;;;;;;9.19;28.40;101763.28;15810936;28;20071;-73
2021/03/08 15:56:14;;;;;;;1999.90;999.90;;;;;;;9.24;28.92;101754.84;15791972;28;20478;-72
2021/03/08 16:03:46;;;;;;;1999.90;999.90;;;;;;;9.11;29.86;101761.16;15780833;28;20036;-72
2021/03/08 16:11:21;;;;;;;1999.90;999.90;;;;;;;9.13;30.76;101770.84;15761500;28;20533;-72
2021/03/08 16:18:53;;;;;;;1999.90;999.90;;;;;;;8.98;30.08;101765.50;15761907;28;20040;-72
2021/03/08 16:26:25;;;;;;;1999.90;999.90;;;;;;;8.83;31.01;101766.47;15797259;28;20044;-71
2021/03/08 16:34:00;;;;;;;1999.90;999.90;;;;;;;8.95;29.83;101777.19;15795919;28;20131;-72
2021/03/08 16:41:32;;;;;;;1999.90;999.90;;;;;;;8.44;30.92;101774.13;15793082;28;20083;-71
2021/03/08 16:49:05;;;;;;;1999.90;999.90;;;;;;;8.51;32.41;101778.25;15776441;28;20146;-72
2021/03/08 16:56:37;;;;;;;1999.90;999.90;;;;;;;8.28;34.03;101781.78;15792037;28;20044;-71
2021/03/08 17:04:12;;;;;;;1999.90;999.90;;;;;;;8.02;32.82;101790.34;15777391;28;20036;-72
2021/03/08 17:11:44;;;;;;;1999.90;999.90;;;;;;;7.68;33.58;101787.50;15760240;28;20044;-72
2021/03/08 17:19:16;;;;;;;1999.90;999.90;;;;;;;7.41;34.30;101795.47;15775383;28;20050;-72
2021/03/08 17:26:51;;;;;;;1999.90;999.90;;;;;;;7.17;35.60;101792.50;15786402;28;20071;-71
2021/03/08 17:34:23;;;;;;;1999.90;999.90;;;;;;;6.86;35.38;101802.88;15806836;28;20105;-72
2021/03/08 17:41:56;;;;;;;1999.90;999.90;;;;;;;6.72;35.87;101813.75;15787160;28;20040;-72
2021/03/08 17:49:28;;;;;;;1999.90;999.90;;;;;;;6.42;36.55;101822.09;15786597;28;20094;-73
2021/03/08 17:57:00;;;;;;;1999.90;999.90;;;;;;;6.05;37.99;101826.81;15803159;28;20095;-72
2021/03/08 18:04:32;;;;;;;1999.90;999.90;;;;;;;5.90;38.84;101823.16;15805665;28;20142;-72
2021/03/08 18:12:09;;;;;;;1999.90;999.90;;;;;;;5.74;38.04;101822.31;15770270;28;20070;-71
2021/03/08 18:19:43;;;;;;;1999.90;999.90;;;;;;;5.64;38.89;101820.34;15803748;28;20043;-72
2021/03/08 18:27:16;;;;;;;1999.90;999.90;;;;;;;4.92;40.92;101835.00;15768428;28;20380;-72
2021/03/08 18:34:47;;;;;;;1999.90;999.90;;;;;;;5.05;40.05;101828.97;15802251;28;20123;-72
2021/03/08 18:42:20;;;;;;;1999.90;999.90;;;;;;;4.61;42.15;101826.50;15767713;28;20040;-73
2021/03/08 18:49:52;;;;;;;1999.90;999.90;;;;;;;4.58;42.18;101813.19;15806543;28;20119;-73
2021/03/08 18:57:24;;;;;;;1999.90;999.90;;;;;;;4.33;42.77;101827.69;15804899;28;20105;-71
2021/03/08 19:04:56;;;;;;;1999.90;999.90;;;;;;;4.14;44.61;101817.28;15781588;28;20411;-72
2021/03/08 19:12:33;;;;;;;1999.90;999.90;;;;;;;3.95;45.19;101820.44;15785298;28;20043;-73
2021/03/08 19:20:06;;;;;;;1999.90;999.90;;;;;;;2.85;46.43;101825.25;15783913;28;20048;-73
2021/03/08 19:27:39;;;;;;;1999.90;999.90;;;;;;;3.25;46.60;101826.88;15783173;28;20595;-73
2021/03/08 19:35:13;;;;;;;1999.90;999.90;;;;;;;3.34;46.53;101830.03;15784505;28;20036;-73
2021/03/08 19:42:47;;;;;;;1999.90;999.90;;;;;;;3.43;47.42;101826.50;15767793;28;20056;-73
2021/03/08 19:50:22;;;;;;;1999.90;999.90;;;;;;;3.32;48.14;101830.25;15782261;28;20074;-73
2021/03/08 19:57:54;;;;;;;1999.90;999.90;;;;;;;3.18;48.52;101828.97;15802327;28;20170;-73
2021/03/08 20:05:26;;;;;;;1999.90;999.90;;;;;;;3.11;48.51;101820.06;15801260;28;20147;-73
2021/03/08 20:13:00;;;;;;;1999.90;999.90;;;;;;;2.95;48.28;101820.97;15767790;28;20048;-73
2021/03/08 20:20:32;;;;;;;1999.90;999.90;;;;;;;2.90;48.35;101832.75;15780602;28;20055;-73
2021/03/08 20:28:06;;;;;;;1999.90;999.90;;;;;;;2.85;47.17;101821.66;15796389;28;20055;-72
2021/03/08 20:35:38;;;;;;;1999.90;999.90;;;;;;;2.93;48.46;101832.25;15778137;28;20359;-71
2021/03/08 20:43:15;;;;;;;1999.90;999.90;;;;;;;2.95;46.56;101823.72;15810541;28;20077;-72
2021/03/08 20:50:47;;;;;;;1999.90;999.90;;;;;;;2.41;47.71;101829.00;15808083;28;20040;-73
2021/03/08 20:58:20;;;;;;;1999.90;999.90;;;;;;;2.64;47.55;101827.97;15745930;28;20103;-70
2021/03/08 21:05:52;;;;;;;1999.90;999.90;;;;;;;2.62;48.30;101819.13;15740669;28;20379;-72
2021/03/08 21:13:25;;;;;;;1999.90;999.90;;;;;;;2.76;47.81;101828.69;15726009;28;20499;-72
2021/03/08 21:20:57;;;;;;;1999.90;999.90;;;;;;;2.26;49.08;101843.34;15742668;28;20145;-73
2021/03/08 21:28:30;;;;;;;1999.90;999.90;;;;;;;2.67;48.59;101824.69;15745168;28;20306;-73
2021/03/08 21:36:02;;;;;;;1999.90;999.90;;;;;;;2.48;49.00;101824.97;15754593;28;20059;-73
2021/03/08 21:43:35;;;;;;;1999.90;999.90;;;;;;;2.76;48.90;101820.44;15787413;23;20493;-59
2021/03/08 21:51:07;;;;;;;1999.90;999.90;;;;;;;2.55;49.95;101822.06;15805783;28;20047;-57
2021/03/08 21:58:39;;;;;;;1999.90;999.90;;;;;;;2.46;49.42;101818.06;15805533;28;20052;-55
2021/03/08 22:06:11;;;;;;;1999.90;999.90;;;;;;;2.13;50.10;101797.72;15803964;28;20036;-55
2021/03/08 22:13:44;;;;;;;1999.90;999.90;;;;;;;2.09;50.75;101809.47;15784115;28;20051;-54
2021/03/08 22:21:15;;;;;;;1999.90;999.90;;;;;;;1.74;49.77;101802.25;15758939;28;20092;-57
2021/03/08 22:28:48;;;;;;;1999.90;999.90;;;;;;;1.82;49.70;101821.13;15743452;28;20048;-52
2021/03/08 22:36:19;;;;;;;1999.90;999.90;;;;;;;1.42;50.27;101800.03;15761602;28;20037;-53
2021/03/08 22:43:52;;;;;;;1999.90;999.90;;;;;;;1.39;50.24;101796.94;15764028;28;20404;-52
2021/03/08 22:51:26;;;;;;;1999.90;999.90;;;;;;;1.64;50.49;101802.06;15759610;28;20112;-56
2021/03/08 22:58:58;;;;;;;1999.90;999.90;;;;;;;1.81;50.25;101796.59;15755799;28;20131;-59
2021/03/08 23:06:30;;;;;;;1999.90;999.90;;;;;;;1.78;50.73;101792.44;15725264;28;20112;-54
2021/03/08 23:14:03;;;;;;;1999.90;999.90;;;;;;;1.93;51.19;101791.84;15768213;28;20104;-51
2021/03/08 23:21:35;;;;;;;1999.90;999.90;;;;;;;1.32;52.37;101782.50;15793489;28;20047;-53
2021/03/08 23:29:07;;;;;;;1999.90;999.90;;;;;;;1.08;51.21;101777.09;15739624;28;20083;-53
2021/03/08 23:36:39;;;;;;;1999.90;999.90;;;;;;;1.13;51.46;101773.59;15763897;28;20158;-57
2021/03/08 23:44:11;;;;;;;1999.90;999.90;;;;;;;1.11;51.47;101764.75;15786413;28;20593;-56
2021/03/08 23:51:43;;;;;;;1999.90;999.90;;;;;;;1.38;50.74;101776.03;15759131;28;20079;-55
2021/03/08 23:59:15;;;;;;;1999.90;999.90;;;;;;;1.34;52.07;101772.06;15756044;28;20240;-53
